Henning, Minnesota
Current Conditions -  °F | °C
As of 2:35 AM on Saturday 25 Oct 2014 (Local Time) from KADC Reporting Station
Clear Clear  
Wind Chill:   Ceiling: Unl
Heat Index:   Visibility: 10mi
Dew Point:   Wind: 7mph
Humidity: 57%   Direction: 280°W
Pressure: 29.95"   Gusts: NA
Location:  46.32°N, 95.45°W
Report Text: KADC 250735Z AUTO 28006KT 10SM CLR 09/01 A2995 RMK AO2
Loading
Personal Weather Stations






























Interactive Weather Map
Tropical Storm Tracking
New forecast layout! Learn more

10-Day Weather Forecast

Advertisements
Track Severe Weather on mobile